Time;durP1;ratioP1;P1;durP2;ratioP2;P2;SDS_P1;SDS_P2;PMS_P1;PMS_P2;Temp;Humidity;BMP_temperature;BMP_pressure;BME280_temperature;BME280_humidity;BME280_pressure;Samples;Min_cycle;Max_cycle;Signal;HPM_P1;HPM_P2
2023/07/11 00:01:48;;;;;;;3.60;1.40;;;;;;;17.01;100.00;101015.25;5155053;28;20029;-72
2023/07/11 00:04:19;;;;;;;2.80;1.20;;;;;;;17.04;100.00;101020.34;5164021;28;20092;-74
2023/07/11 00:06:52;;;;;;;1.85;1.10;;;;;;;16.85;100.00;101025.81;5169949;28;20037;-74
2023/07/11 00:09:23;;;;;;;7.10;1.30;;;;;;;16.72;100.00;101031.78;5163758;28;20030;-74
2023/07/11 00:11:53;;;;;;;1.90;1.15;;;;;;;16.83;100.00;101030.28;5164538;28;20474;-74
2023/07/11 00:14:23;;;;;;;4.13;1.48;;;;;;;16.74;100.00;101027.28;5163930;28;20687;-74
2023/07/11 00:16:54;;;;;;;3.17;1.33;;;;;;;16.61;100.00;101031.53;5166745;28;20021;-74
2023/07/11 00:19:25;;;;;;;4.00;1.27;;;;;;;16.67;100.00;101030.34;5128171;28;20029;-74
2023/07/11 00:21:55;;;;;;;3.22;1.30;;;;;;;16.60;100.00;101027.19;5161492;28;20025;-75
2023/07/11 00:24:25;;;;;;;2.88;1.40;;;;;;;16.61;100.00;101025.38;5161399;28;20080;-75
2023/07/11 00:26:55;;;;;;;1.93;1.10;;;;;;;16.60;100.00;101032.47;5161715;28;20391;-72
2023/07/11 00:29:26;;;;;;;2.70;1.30;;;;;;;16.55;100.00;101026.56;5155968;28;20468;-75
2023/07/11 00:31:56;;;;;;;3.90;1.40;;;;;;;16.64;100.00;101030.50;5161519;28;20030;-73
2023/07/11 00:34:26;;;;;;;3.67;1.48;;;;;;;16.72;100.00;101031.78;5161730;28;20030;-74
2023/07/11 00:36:57;;;;;;;3.72;1.42;;;;;;;16.69;100.00;101023.22;5152224;28;20161;-73
2023/07/11 00:39:29;;;;;;;3.65;1.63;;;;;;;16.66;100.00;101024.22;5161366;28;20033;-75
2023/07/11 00:42:00;;;;;;;3.20;1.30;;;;;;;16.65;100.00;101014.59;5160920;28;20049;-73
2023/07/11 00:45:26;;;;;;;3.35;1.35;;;;;;;16.56;100.00;101017.69;5160560;28;20035;-74
2023/07/11 00:47:57;;;;;;;3.95;1.17;;;;;;;16.69;100.00;101017.94;5051133;29;20522;-74
2023/07/11 00:50:27;;;;;;;2.17;1.15;;;;;;;16.62;100.00;101009.47;5150356;28;20057;-74
2023/07/11 00:52:57;;;;;;;3.45;1.35;;;;;;;16.61;100.00;101013.06;5134594;28;20230;-74
2023/07/11 00:55:28;;;;;;;4.15;1.27;;;;;;;16.77;100.00;101004.22;5154322;28;20419;-74
2023/07/11 00:57:59;;;;;;;2.05;1.25;;;;;;;16.82;100.00;101003.97;5136707;28;20042;-75
2023/07/11 01:00:29;;;;;;;2.67;1.02;;;;;;;16.60;100.00;101008.72;5154335;28;20396;-74
2023/07/11 01:02:59;;;;;;;3.08;1.20;;;;;;;16.79;100.00;101010.25;5150591;28;20029;-73
2023/07/11 01:05:30;;;;;;;3.20;1.38;;;;;;;16.54;100.00;101011.66;5154131;28;20062;-74
2023/07/11 01:08:00;;;;;;;2.22;1.20;;;;;;;16.56;100.00;101001.88;5152317;28;20026;-73
2023/07/11 01:10:30;;;;;;;2.78;1.20;;;;;;;16.54;100.00;101002.91;5154073;28;20034;-75
2023/07/11 01:13:03;;;;;;;2.83;1.20;;;;;;;16.32;100.00;101005.78;5150934;28;20030;-73
2023/07/11 01:15:33;;;;;;;4.05;1.45;;;;;;;16.24;100.00;100993.91;5137939;28;20488;-74
2023/07/11 01:18:04;;;;;;;5.43;1.30;;;;;;;16.20;100.00;100995.03;5154394;28;20027;-75
2023/07/11 01:20:34;;;;;;;4.85;1.40;;;;;;;16.11;100.00;100998.97;5161681;28;20037;-75
2023/07/11 01:23:05;;;;;;;2.97;1.30;;;;;;;16.13;100.00;100991.84;5159473;28;20030;-74
2023/07/11 01:25:38;;;;;;;2.53;1.40;;;;;;;16.12;100.00;100987.50;5163387;28;20042;-75
2023/07/11 01:28:08;;;;;;;5.18;1.60;;;;;;;16.07;100.00;100992.13;5164784;28;20031;-74
2023/07/11 01:30:39;;;;;;;2.42;1.30;;;;;;;16.05;100.00;100988.72;5163085;28;20026;-74
2023/07/11 01:33:09;;;;;;;5.10;1.50;;;;;;;16.06;100.00;100990.44;5163555;28;20464;-74
2023/07/11 01:35:39;;;;;;;4.47;1.38;;;;;;;15.92;100.00;100987.69;5164205;28;20057;-74
2023/07/11 01:38:09;;;;;;;4.85;1.60;;;;;;;16.10;100.00;100983.22;5165946;28;20088;-74
2023/07/11 01:40:40;;;;;;;3.67;1.42;;;;;;;16.04;100.00;100979.13;5164246;28;20034;-74
2023/07/11 01:43:10;;;;;;;3.50;1.50;;;;;;;16.18;100.00;100967.88;5163383;28;20489;-74
2023/07/11 01:45:41;;;;;;;2.35;1.60;;;;;;;16.05;100.00;100975.53;5166605;28;20107;-74
2023/07/11 01:48:11;;;;;;;3.38;1.42;;;;;;;15.95;100.00;100974.34;5162243;28;20034;-74
2023/07/11 01:50:41;;;;;;;1.75;1.30;;;;;;;15.91;100.00;100966.66;5166835;28;20026;-74
2023/07/11 01:53:12;;;;;;;3.70;1.55;;;;;;;15.86;100.00;100968.69;5165425;28;20109;-75
2023/07/11 01:55:42;;;;;;;2.60;1.40;;;;;;;15.75;100.00;100960.44;5170289;28;20026;-75
2023/07/11 01:58:12;;;;;;;2.20;1.30;;;;;;;15.73;100.00;100962.31;5164876;28;20029;-74
2023/07/11 02:00:42;;;;;;;2.22;1.50;;;;;;;15.81;100.00;100961.00;5163779;28;20026;-74
2023/07/11 02:03:13;;;;;;;5.32;1.80;;;;;;;15.70;100.00;100949.28;5148367;28;20045;-75
2023/07/11 02:05:43;;;;;;;4.47;1.48;;;;;;;15.77;100.00;100953.31;5163915;28;20049;-74
2023/07/11 02:08:13;;;;;;;4.63;1.40;;;;;;;15.82;100.00;100962.69;5163116;28;20488;-74
2023/07/11 02:10:44;;;;;;;3.83;1.50;;;;;;;15.85;100.00;100959.91;5167972;28;20056;-75
2023/07/11 02:13:14;;;;;;;2.60;1.40;;;;;;;15.70;100.00;100965.09;5148991;28;20030;-75
2023/07/11 02:15:44;;;;;;;5.93;1.92;;;;;;;15.66;100.00;100960.88;5167951;28;20120;-74
2023/07/11 02:18:15;;;;;;;2.25;1.35;;;;;;;15.76;100.00;100955.09;5143312;28;20108;-75
2023/07/11 02:20:45;;;;;;;2.78;1.50;;;;;;;15.72;100.00;100952.69;5160943;28;20041;-74
2023/07/11 02:23:16;;;;;;;4.90;1.40;;;;;;;15.53;100.00;100963.28;5163278;28;20488;-75
2023/07/11 02:25:46;;;;;;;3.70;1.35;;;;;;;15.49;100.00;100960.88;5168215;28;20384;-75
2023/07/11 02:28:17;;;;;;;7.40;1.70;;;;;;;15.44;100.00;100963.75;5162789;28;20181;-75
2023/07/11 02:30:47;;;;;;;4.30;1.65;;;;;;;15.48;100.00;100957.41;5165195;28;20446;-74
2023/07/11 02:33:17;;;;;;;3.60;1.92;;;;;;;15.52;100.00;100960.75;5165246;28;20076;-75
2023/07/11 02:35:48;;;;;;;2.78;1.40;;;;;;;15.63;100.00;100961.91;5169341;28;20648;-73
2023/07/11 02:38:18;;;;;;;5.63;1.50;;;;;;;15.69;100.00;100969.50;5160703;28;20113;-74
2023/07/11 02:40:48;;;;;;;2.83;1.50;;;;;;;15.79;100.00;100970.75;5167010;28;20010;-73
2023/07/11 02:43:19;;;;;;;5.72;1.60;;;;;;;15.73;100.00;100960.50;5150450;28;20265;-75
2023/07/11 02:45:49;;;;;;;4.68;1.60;;;;;;;15.68;100.00;100959.91;5168236;28;20395;-73
2023/07/11 02:48:19;;;;;;;6.63;1.50;;;;;;;15.77;100.00;100956.81;5161936;28;20115;-75
2023/07/11 02:50:50;;;;;;;5.88;1.30;;;;;;;15.80;100.00;100956.66;5164855;28;20092;-74
2023/07/11 02:53:20;;;;;;;6.20;1.88;;;;;;;15.81;100.00;100955.72;5164495;28;20492;-75
2023/07/11 02:55:52;;;;;;;5.00;1.70;;;;;;;15.64;100.00;100955.72;5169450;28;20022;-74
2023/07/11 02:58:22;;;;;;;5.25;1.58;;;;;;;15.55;100.00;100956.16;5165725;28;20033;-75
2023/07/11 03:00:58;;;;;;;8.07;1.60;;;;;;;15.57;100.00;100954.28;5237949;23;20655;-72
2023/07/11 03:03:29;;;;;;;6.47;1.52;;;;;;;15.45;100.00;100949.66;5169420;28;20136;-73
2023/07/11 03:05:59;;;;;;;5.03;1.50;;;;;;;15.53;100.00;100947.47;5152925;28;20190;-72
2023/07/11 03:08:29;;;;;;;5.88;1.60;;;;;;;15.60;100.00;100948.03;5170714;28;20516;-73
2023/07/11 03:11:00;;;;;;;5.75;1.77;;;;;;;15.45;100.00;100940.88;5153705;28;20021;-73
2023/07/11 03:13:30;;;;;;;4.45;1.48;;;;;;;15.65;100.00;100941.63;5152994;28;20258;-72
2023/07/11 03:16:02;;;;;;;6.43;1.45;;;;;;;15.54;100.00;100938.66;5170737;28;20041;-72
2023/07/11 03:18:33;;;;;;;3.05;1.50;;;;;;;15.52;100.00;100937.03;5134328;28;20026;-73
2023/07/11 03:21:03;;;;;;;5.63;1.58;;;;;;;15.51;100.00;100936.16;5170394;28;20416;-72
2023/07/11 03:23:34;;;;;;;6.75;1.65;;;;;;;15.47;100.00;100936.41;5170949;28;20022;-73
2023/07/11 03:26:04;;;;;;;4.90;1.50;;;;;;;15.44;100.00;100932.16;5169275;28;20055;-73
2023/07/11 03:28:34;;;;;;;6.40;1.63;;;;;;;15.55;100.00;100928.97;5155423;28;20060;-72
2023/07/11 03:31:05;;;;;;;9.43;1.67;;;;;;;15.57;100.00;100927.13;5153636;28;20546;-72
2023/07/11 03:33:35;;;;;;;5.55;1.60;;;;;;;15.58;100.00;100928.81;5169107;28;20026;-73
2023/07/11 03:36:05;;;;;;;6.00;1.70;;;;;;;15.61;100.00;100924.25;5168178;28;20079;-72
2023/07/11 03:38:36;;;;;;;7.28;1.67;;;;;;;15.55;100.00;100928.97;5166735;28;20033;-72
2023/07/11 03:41:06;;;;;;;7.97;1.83;;;;;;;15.58;100.00;100923.53;5168103;28;20038;-72
2023/07/11 03:43:36;;;;;;;6.82;1.70;;;;;;;15.51;100.00;100928.28;5153956;28;20106;-74
2023/07/11 03:46:07;;;;;;;8.23;1.60;;;;;;;15.53;100.00;100920.31;5167002;28;20062;-73
2023/07/11 03:48:37;;;;;;;9.23;1.88;;;;;;;15.63;100.00;100925.03;5165150;28;20504;-73
2023/07/11 03:51:07;;;;;;;5.05;1.65;;;;;;;15.64;100.00;100929.38;5166984;28;20058;-73
2023/07/11 03:53:37;;;;;;;5.80;1.63;;;;;;;15.72;100.00;100928.97;5171733;28;20087;-73
2023/07/11 03:56:08;;;;;;;8.23;1.77;;;;;;;15.85;100.00;100917.72;5169465;28;20361;-72
2023/07/11 03:58:38;;;;;;;12.38;1.73;;;;;;;15.85;100.00;100916.88;5170748;28;20056;-72
2023/07/11 04:01:08;;;;;;;6.18;1.50;;;;;;;15.91;100.00;100917.38;5167272;28;20476;-73
2023/07/11 04:03:39;;;;;;;8.13;1.58;;;;;;;15.89;100.00;100906.06;5167755;28;20037;-73
2023/07/11 04:06:09;;;;;;;7.82;1.80;;;;;;;15.85;100.00;100903.69;5146444;28;20429;-73
2023/07/11 04:08:39;;;;;;;6.07;1.70;;;;;;;16.07;100.00;100907.75;5170320;28;20029;-73
2023/07/11 04:11:10;;;;;;;6.57;1.38;;;;;;;16.16;100.00;100904.66;5168791;28;20105;-72
2023/07/11 04:13:40;;;;;;;7.30;1.77;;;;;;;16.35;100.00;100905.41;5151865;28;20030;-73
2023/07/11 04:16:10;;;;;;;10.93;1.47;;;;;;;16.39;100.00;100906.94;5164541;28;20535;-72
2023/07/11 04:18:40;;;;;;;3.35;1.65;;;;;;;16.33;100.00;100904.59;5161953;28;20272;-72
2023/07/11 04:21:11;;;;;;;6.53;1.83;;;;;;;16.50;100.00;100896.66;5140841;28;20042;-70
2023/07/11 04:23:41;;;;;;;10.02;1.90;;;;;;;16.49;100.00;100900.22;5154489;28;20288;-72
2023/07/11 04:26:11;;;;;;;7.15;1.90;;;;;;;16.61;100.00;100899.56;5153443;28;20036;-73
2023/07/11 04:28:42;;;;;;;4.25;1.73;;;;;;;16.73;100.00;100895.41;5148670;28;20032;-73
2023/07/11 04:31:13;;;;;;;4.40;1.52;;;;;;;16.68;100.00;100900.91;5147327;28;20036;-73
2023/07/11 04:33:43;;;;;;;7.18;1.67;;;;;;;16.68;100.00;100895.63;5142117;28;20114;-72
2023/07/11 04:36:15;;;;;;;8.70;1.95;;;;;;;16.72;100.00;100894.53;5161046;28;20026;-72
2023/07/11 04:38:46;;;;;;;7.40;1.80;;;;;;;16.81;100.00;100892.22;5146079;28;20030;-73
2023/07/11 04:41:16;;;;;;;8.52;1.60;;;;;;;17.06;100.00;100886.41;5163508;28;20489;-72
2023/07/11 04:43:47;;;;;;;11.93;1.75;;;;;;;17.46;100.00;100889.34;5170266;28;20077;-73
2023/07/11 04:46:17;;;;;;;7.03;2.45;;;;;;;18.27;100.00;100886.13;5162191;28;20041;-72
2023/07/11 04:48:48;;;;;;;5.97;1.60;;;;;;;18.86;100.00;100882.31;5147389;28;20026;-70
2023/07/11 04:51:19;;;;;;;5.72;1.50;;;;;;;20.45;90.55;100868.66;5151142;28;20041;-73
2023/07/11 04:53:49;;;;;;;6.88;1.45;;;;;;;21.48;85.48;100866.25;5158666;28;20027;-72
2023/07/11 04:56:19;;;;;;;3.57;1.20;;;;;;;22.56;80.52;100873.69;5160379;28;20030;-72
2023/07/11 04:58:50;;;;;;;6.35;1.67;;;;;;;22.69;82.35;100872.56;5165590;28;20759;-72
2023/07/11 05:01:20;;;;;;;4.40;1.30;;;;;;;23.96;78.14;100871.63;5166235;28;20032;-73
2023/07/11 05:03:50;;;;;;;3.70;1.20;;;;;;;24.64;73.24;100865.59;5137354;28;20037;-73
2023/07/11 05:06:21;;;;;;;6.10;1.55;;;;;;;24.33;75.04;100859.44;5156162;28;20036;-74
2023/07/11 05:08:51;;;;;;;2.58;1.02;;;;;;;23.80;77.89;100863.19;5139416;28;20024;-74
2023/07/11 05:11:21;;;;;;;2.35;1.00;;;;;;;24.76;75.25;100852.84;5158670;28;20064;-73
2023/07/11 05:13:52;;;;;;;2.08;1.05;;;;;;;24.97;72.44;100850.91;5124091;28;20039;-74
2023/07/11 05:16:28;;;;;;;4.68;1.13;;;;;;;25.30;73.48;100847.84;5163751;28;20033;-73
2023/07/11 05:18:59;;;;;;;6.70;1.15;;;;;;;25.92;71.07;100850.91;5159621;28;20496;-73
2023/07/11 05:21:30;;;;;;;3.47;1.15;;;;;;;25.92;71.49;100847.38;5162946;28;20037;-73
2023/07/11 05:24:01;;;;;;;2.80;1.08;;;;;;;24.88;77.28;100850.88;5160701;28;20094;-73
2023/07/11 05:26:33;;;;;;;3.38;1.10;;;;;;;25.38;75.98;100844.47;5152415;28;20026;-74
2023/07/11 05:29:06;;;;;;;3.63;1.10;;;;;;;25.64;71.75;100848.28;5160461;28;20027;-73
2023/07/11 05:31:37;;;;;;;4.40;1.20;;;;;;;26.10;73.99;100853.66;5167334;28;20033;-73
2023/07/11 05:34:09;;;;;;;3.67;1.00;;;;;;;26.61;70.49;100840.63;5165750;28;20026;-74
2023/07/11 05:36:39;;;;;;;4.95;1.25;;;;;;;27.61;68.78;100835.78;5138867;28;20342;-73
2023/07/11 05:39:13;;;;;;;2.75;1.13;;;;;;;27.25;69.30;100842.19;5157383;28;20029;-73
2023/07/11 05:41:49;;;;;;;2.42;1.00;;;;;;;27.82;67.76;100839.00;5148817;28;20022;-74
2023/07/11 05:44:20;;;;;;;5.18;1.10;;;;;;;26.73;70.77;100836.75;5164240;28;20030;-71
2023/07/11 05:46:50;;;;;;;3.80;1.30;;;;;;;27.26;69.07;100823.22;5141972;28;20026;-73
2023/07/11 05:49:20;;;;;;;4.77;1.03;;;;;;;26.77;70.81;100820.22;5162527;28;20468;-72
2023/07/11 05:51:50;;;;;;;4.90;1.03;;;;;;;26.89;71.27;100829.69;5162501;28;20304;-72
2023/07/11 05:54:21;;;;;;;4.40;1.15;;;;;;;27.12;71.06;100815.72;5148242;28;20277;-73
2023/07/11 05:56:51;;;;;;;2.27;1.10;;;;;;;26.42;73.48;100821.94;5161835;28;20487;-73
2023/07/11 05:59:21;;;;;;;3.95;1.25;;;;;;;25.57;75.37;100817.69;5159538;28;20269;-73
2023/07/11 06:01:52;;;;;;;3.75;1.38;;;;;;;25.17;77.16;100812.47;5162088;28;20350;-73
2023/07/11 06:04:22;;;;;;;4.73;1.50;;;;;;;25.46;74.05;100809.81;5159894;28;20391;-72
2023/07/11 06:06:52;;;;;;;3.92;1.15;;;;;;;24.63;77.42;100805.97;5149775;28;20269;-73
2023/07/11 06:09:23;;;;;;;3.83;1.33;;;;;;;24.57;76.05;100803.00;5159281;28;20030;-72
2023/07/11 06:11:53;;;;;;;4.03;1.30;;;;;;;24.68;75.49;100803.72;5162722;28;20018;-73
2023/07/11 06:14:23;;;;;;;2.27;0.90;;;;;;;24.73;75.27;100792.59;5153499;28;20503;-73
2023/07/11 06:16:54;;;;;;;4.32;1.08;;;;;;;24.60;76.97;100784.84;5152003;28;20272;-71
2023/07/11 06:19:24;;;;;;;3.77;1.30;;;;;;;24.73;74.97;100784.59;5166977;28;20057;-71
2023/07/11 06:21:55;;;;;;;3.63;1.43;;;;;;;25.33;74.39;100782.50;5167502;28;20355;-70
2023/07/11 06:24:25;;;;;;;6.70;1.50;;;;;;;24.91;76.22;100781.06;5166992;28;20289;-71
2023/07/11 06:26:55;;;;;;;3.28;1.13;;;;;;;25.38;74.34;100780.22;5146245;28;20115;-70
2023/07/11 06:29:28;;;;;;;2.73;1.40;;;;;;;25.08;73.76;100777.69;5148786;28;20396;-71
2023/07/11 06:31:59;;;;;;;2.80;1.00;;;;;;;25.88;73.85;100765.63;5168526;28;20269;-71
2023/07/11 06:34:29;;;;;;;2.92;0.98;;;;;;;25.79;72.81;100766.44;5166963;28;20088;-71
2023/07/11 06:36:59;;;;;;;4.70;1.30;;;;;;;25.66;72.93;100758.75;5170658;28;20026;-71
2023/07/11 06:39:30;;;;;;;2.63;1.00;;;;;;;25.68;72.90;100755.94;5149731;28;20839;-74
2023/07/11 06:42:00;;;;;;;4.83;1.20;;;;;;;26.01;70.29;100764.28;5168708;28;20296;-74
2023/07/11 06:44:30;;;;;;;3.13;1.27;;;;;;;25.76;70.86;100764.06;5153242;28;20305;-74
2023/07/11 06:47:00;;;;;;;3.65;1.30;;;;;;;26.22;70.39;100761.38;5168133;28;20025;-73
2023/07/11 06:49:31;;;;;;;3.43;1.20;;;;;;;26.69;68.68;100760.25;5152120;28;20457;-74
2023/07/11 06:52:02;;;;;;;4.93;1.30;;;;;;;26.42;70.95;100762.94;5168211;28;20339;-72
2023/07/11 06:54:32;;;;;;;3.08;1.40;;;;;;;26.34;69.56;100749.44;5152588;28;20296;-71
2023/07/11 06:57:03;;;;;;;3.40;1.30;;;;;;;26.65;69.97;100750.84;5168077;28;20113;-73
2023/07/11 06:59:33;;;;;;;2.80;1.25;;;;;;;26.75;68.93;100755.13;5170198;28;20029;-72
2023/07/11 07:02:03;;;;;;;3.00;1.20;;;;;;;27.46;67.35;100736.09;5171550;28;20108;-72
2023/07/11 07:04:34;;;;;;;3.10;1.17;;;;;;;27.47;67.93;100743.16;5148197;28;20340;-72
2023/07/11 07:07:04;;;;;;;2.78;1.17;;;;;;;27.72;66.58;100742.38;5152914;28;20491;-73
2023/07/11 07:09:35;;;;;;;3.10;1.20;;;;;;;28.15;67.02;100738.69;5163818;28;20030;-74
2023/07/11 07:12:05;;;;;;;2.70;1.13;;;;;;;27.99;66.17;100738.63;5167089;28;20034;-73
2023/07/11 07:14:36;;;;;;;2.38;1.02;;;;;;;27.58;66.40;100734.84;5171094;28;20626;-72
2023/07/11 07:17:06;;;;;;;6.65;1.55;;;;;;;27.67;66.54;100733.06;5165768;28;20030;-72
2023/07/11 07:19:36;;;;;;;5.33;1.00;;;;;;;27.97;66.54;100741.47;5167842;28;20480;-73
2023/07/11 07:22:07;;;;;;;5.15;1.25;;;;;;;27.82;67.74;100732.31;5151877;28;20376;-74
2023/07/11 07:24:37;;;;;;;5.60;1.10;;;;;;;27.86;65.90;100733.72;5157583;28;20520;-72
2023/07/11 07:27:09;;;;;;;3.03;1.10;;;;;;;28.26;65.03;100724.94;5168278;28;20052;-73
2023/07/11 07:29:39;;;;;;;1.55;0.88;;;;;;;28.93;65.66;100726.47;5169852;28;20041;-72
2023/07/11 07:32:10;;;;;;;1.83;1.20;;;;;;;28.94;64.91;100725.50;5171105;28;20032;-73
2023/07/11 07:34:40;;;;;;;2.80;1.10;;;;;;;29.54;63.82;100718.72;5156450;28;20277;-74
2023/07/11 07:37:10;;;;;;;2.20;1.00;;;;;;;29.05;63.62;100718.94;5157767;28;20491;-73
2023/07/11 07:39:41;;;;;;;3.67;1.17;;;;;;;29.27;65.45;100712.84;5172073;28;20303;-73
2023/07/11 07:42:11;;;;;;;1.83;1.10;;;;;;;29.93;63.42;100702.59;5172219;28;20037;-74
2023/07/11 07:44:42;;;;;;;1.90;1.20;;;;;;;29.58;62.75;100703.06;5153702;28;20034;-74
2023/07/11 07:47:12;;;;;;;3.03;1.30;;;;;;;29.81;63.37;100707.53;5173658;28;20579;-73
2023/07/11 07:49:42;;;;;;;3.20;1.30;;;;;;;29.44;63.55;100703.72;5173963;28;20040;-73
2023/07/11 07:52:12;;;;;;;2.60;1.20;;;;;;;30.50;60.81;100704.00;5166716;28;20386;-73
2023/07/11 07:54:43;;;;;;;2.40;1.10;;;;;;;29.95;62.15;100690.59;5157846;28;20304;-73
2023/07/11 07:57:13;;;;;;;5.55;1.30;;;;;;;29.26;63.57;100695.81;5172557;28;20039;-72
2023/07/11 07:59:43;;;;;;;3.03;1.08;;;;;;;30.07;60.50;100693.81;5174019;28;20014;-73
2023/07/11 08:02:14;;;;;;;3.47;1.37;;;;;;;30.92;60.48;100694.44;5174386;28;20431;-72
2023/07/11 08:04:47;;;;;;;3.77;1.03;;;;;;;30.59;60.39;100682.19;5168511;28;20283;-73
2023/07/11 08:07:17;;;;;;;2.67;1.10;;;;;;;31.03;58.89;100685.91;5152735;28;20030;-73
2023/07/11 08:09:48;;;;;;;4.00;1.30;;;;;;;31.14;58.77;100678.22;5174764;28;20022;-71
2023/07/11 08:12:18;;;;;;;3.58;1.67;;;;;;;31.63;58.44;100673.13;5173097;28;20555;-73
2023/07/11 08:14:48;;;;;;;3.47;1.13;;;;;;;30.72;59.98;100677.03;5170417;28;20021;-72
2023/07/11 08:17:19;;;;;;;4.20;1.07;;;;;;;31.36;59.51;100663.81;5171696;28;20426;-72
2023/07/11 08:19:49;;;;;;;2.50;1.00;;;;;;;31.76;56.94;100673.34;5155810;28;20832;-73
2023/07/11 08:22:19;;;;;;;3.60;1.33;;;;;;;31.35;57.93;100667.53;5167655;28;20498;-73
2023/07/11 08:24:50;;;;;;;2.28;1.10;;;;;;;31.23;57.40;100654.66;5171418;28;20017;-74
2023/07/11 08:27:20;;;;;;;2.57;1.40;;;;;;;31.62;56.44;100650.69;5172591;28;20048;-73
2023/07/11 08:29:50;;;;;;;2.17;1.10;;;;;;;31.10;57.62;100655.28;5172000;28;20296;-73
2023/07/11 08:32:21;;;;;;;2.60;1.10;;;;;;;31.99;55.92;100637.03;5171246;28;20046;-73
2023/07/11 08:34:51;;;;;;;3.43;1.30;;;;;;;32.45;54.02;100638.44;5172646;28;20113;-73
2023/07/11 08:37:21;;;;;;;2.03;1.00;;;;;;;32.70;55.23;100628.91;5172089;28;20272;-73
2023/07/11 08:39:51;;;;;;;2.33;1.40;;;;;;;33.46;54.22;100640.56;5170893;28;20413;-72
2023/07/11 08:42:34;;;;;;;4.90;1.40;;;;;;;32.88;52.82;100634.69;5173465;28;20026;-74
2023/07/11 08:45:22;;;;;;;2.25;1.10;;;;;;;32.25;54.01;100628.41;5156289;28;20022;-74
2023/07/11 08:48:13;;;;;;;3.70;1.20;;;;;;;32.58;54.48;100625.00;5169251;28;20487;-73
2023/07/11 08:50:54;;;;;;;2.30;1.00;;;;;;;33.01;53.27;100626.66;5149836;28;20515;-71
2023/07/11 08:53:45;;;;;;;1.80;1.10;;;;;;;32.32;54.40;100615.78;5170757;28;20116;-73
2023/07/11 08:56:40;;;;;;;5.40;1.20;;;;;;;33.08;53.06;100613.97;5172249;28;20030;-73
2023/07/11 09:02:15;;;;;;;2.00;1.30;;;;;;;32.48;51.93;100600.13;5162894;23;20119;-76
2023/07/11 09:04:51;;;;;;;1.30;1.00;;;;;;;32.92;51.69;100603.44;5141797;28;20475;-73
2023/07/11 09:07:36;;;;;;;2.58;1.38;;;;;;;33.47;54.54;100593.41;5145514;28;20026;-75
2023/07/11 09:10:24;;;;;;;2.72;1.10;;;;;;;33.30;52.32;100586.66;5139565;28;20090;-74
2023/07/11 09:13:14;;;;;;;2.50;1.40;;;;;;;32.94;52.96;100580.53;5123670;28;20030;-75
2023/07/11 09:15:57;;;;;;;3.22;1.10;;;;;;;33.49;53.17;100580.47;5120643;28;20038;-76
2023/07/11 09:18:33;;;;;;;2.25;1.40;;;;;;;33.68;54.41;100576.19;5121457;28;20118;-75
2023/07/11 09:21:13;;;;;;;4.43;1.30;;;;;;;33.65;54.57;100587.47;5126331;28;20061;-76
2023/07/11 09:23:54;;;;;;;2.33;1.45;;;;;;;34.65;52.73;100572.91;5124067;28;20031;-76
2023/07/11 09:26:27;;;;;;;4.25;1.42;;;;;;;36.29;50.98;100570.34;5126014;28;20106;-76
2023/07/11 09:29:05;;;;;;;3.88;1.40;;;;;;;34.05;51.29;100579.28;5134227;28;20037;-76
2023/07/11 09:31:42;;;;;;;4.60;1.25;;;;;;;34.53;53.54;100569.16;5126604;28;20126;-76
2023/07/11 09:34:20;;;;;;;2.63;1.10;;;;;;;34.85;53.63;100560.19;5129138;28;20026;-76
2023/07/11 09:36:55;;;;;;;3.38;1.10;;;;;;;34.24;52.74;100558.66;5121973;28;20545;-73
2023/07/11 09:39:35;;;;;;;2.17;1.20;;;;;;;34.76;53.57;100558.72;5135120;28;20057;-76
2023/07/11 09:42:19;;;;;;;3.83;1.30;;;;;;;34.69;53.98;100561.44;5127130;28;20035;-76
2023/07/11 09:44:59;;;;;;;2.30;1.20;;;;;;;34.98;52.63;100558.28;5125231;28;20386;-74
2023/07/11 09:47:32;;;;;;;2.13;1.27;;;;;;;34.92;52.46;100548.25;5124861;28;20259;-76
2023/07/11 09:50:19;;;;;;;1.58;1.02;;;;;;;33.96;53.06;100541.66;5129541;28;20671;-76
2023/07/11 09:52:51;;;;;;;3.20;1.30;;;;;;;34.65;52.11;100549.28;5127473;28;20035;-73
2023/07/11 09:55:30;;;;;;;2.53;1.27;;;;;;;34.18;53.53;100549.47;5129772;28;20030;-76
2023/07/11 09:58:01;;;;;;;7.32;1.30;;;;;;;33.92;55.18;100540.41;5128819;28;20066;-76
2023/07/11 10:00:32;;;;;;;2.92;1.17;;;;;;;34.12;53.70;100538.56;5128795;28;20073;-76
2023/07/11 10:03:02;;;;;;;2.20;1.17;;;;;;;34.48;51.44;100528.22;5135727;28;20035;-75
2023/07/11 10:05:33;;;;;;;3.25;1.30;;;;;;;35.53;50.77;100525.06;5129519;28;20018;-76
2023/07/11 10:08:12;;;;;;;2.33;1.10;;;;;;;36.05;50.54;100525.66;5122519;28;20038;-76
2023/07/11 10:10:48;;;;;;;2.47;1.40;;;;;;;35.17;51.37;100520.22;5125254;28;20070;-76
2023/07/11 10:13:21;;;;;;;2.22;1.13;;;;;;;34.76;51.86;100528.81;5122838;28;20086;-76
2023/07/11 10:15:54;;;;;;;2.53;1.00;;;;;;;33.93;52.35;100513.06;5121726;28;20267;-76
2023/07/11 10:18:31;;;;;;;3.28;1.33;;;;;;;34.36;53.58;100514.38;5128084;28;20035;-75
2023/07/11 10:21:12;;;;;;;4.72;1.33;;;;;;;34.10;52.72;100524.38;5125747;28;20413;-75
2023/07/11 10:23:44;;;;;;;2.53;1.20;;;;;;;32.78;54.48;100511.44;5128721;28;20029;-76
2023/07/11 10:26:20;;;;;;;2.75;1.52;;;;;;;32.33;53.96;100499.22;5125000;28;20055;-75
2023/07/11 10:29:00;;;;;;;3.08;1.60;;;;;;;32.52;53.44;100498.53;5122106;28;20181;-75
2023/07/11 10:31:36;;;;;;;2.65;1.30;;;;;;;32.48;54.63;100491.84;5139541;28;20194;-76
2023/07/11 10:34:15;;;;;;;3.53;1.60;;;;;;;31.66;55.34;100486.22;5129929;28;20038;-74
2023/07/11 10:36:51;;;;;;;3.22;1.30;;;;;;;32.12;54.63;100490.25;5123432;28;20023;-75
2023/07/11 10:39:30;;;;;;;;;;;;;;;31.74;54.02;100486.13;5125439;28;20386;-75
2023/07/11 10:42:25;;;;;;;5.15;1.40;;;;;;;31.98;56.01;100477.63;5122726;28;19972;-74
2023/07/11 10:45:06;;;;;;;7.27;1.60;;;;;;;32.07;55.93;100477.28;5122868;28;20031;-73
2023/07/11 10:47:41;;;;;;;5.43;1.65;;;;;;;31.72;51.58;100467.38;5135120;28;20081;-74
2023/07/11 10:50:37;;;;;;;3.33;1.55;;;;;;;31.77;55.38;100461.41;5129425;28;20031;-76
2023/07/11 10:53:18;;;;;;;6.43;1.83;;;;;;;32.16;56.98;100465.31;5127698;28;20089;-74
2023/07/11 10:56:07;;;;;;;4.13;1.60;;;;;;;32.18;56.99;100460.56;5124207;28;20031;-72
2023/07/11 10:58:37;;;;;;;3.10;1.50;;;;;;;32.10;55.85;100452.56;5122264;28;20023;-76
2023/07/11 11:01:39;;;;;;;3.25;1.80;;;;;;;31.98;56.23;100453.28;5122375;28;20039;-75
2023/07/11 11:04:39;;;;;;;2.95;1.60;;;;;;;32.02;52.98;100441.88;5123638;28;20038;-74
2023/07/11 11:07:14;;;;;;;3.47;1.48;;;;;;;31.89;55.02;100436.34;5125141;28;20102;-72
2023/07/11 11:10:05;;;;;;;2.45;1.60;;;;;;;31.99;59.34;100427.91;5124082;28;20038;-75
2023/07/11 11:12:51;;;;;;;3.22;1.60;;;;;;;31.99;56.58;100425.19;5125182;28;20030;-75
2023/07/11 11:15:30;;;;;;;3.50;1.73;;;;;;;31.95;55.21;100422.06;5124797;28;20027;-76
2023/07/11 11:18:27;;;;;;;4.30;1.70;;;;;;;31.83;55.41;100426.31;5122642;28;20493;-76
2023/07/11 11:21:15;;;;;;;4.43;2.08;;;;;;;31.50;58.50;100427.81;5124878;28;20049;-75
2023/07/11 11:24:16;;;;;;;4.25;2.05;;;;;;;31.33;55.44;100422.84;5126154;28;20062;-75
2023/07/11 11:27:18;;;;;;;5.38;1.92;;;;;;;31.48;54.52;100413.66;5113103;28;20113;-75
2023/07/11 11:30:28;;;;;;;3.70;1.83;;;;;;;31.91;57.01;100401.81;5125302;28;20098;-73
2023/07/11 11:33:17;;;;;;;6.03;1.90;;;;;;;31.65;58.88;100407.00;5126299;28;20097;-75
2023/07/11 11:36:27;;;;;;;4.55;2.10;;;;;;;31.26;57.99;100398.47;5127755;28;20027;-72
2023/07/11 11:39:09;;;;;;;3.92;2.08;;;;;;;31.13;59.91;100398.31;5121616;28;20026;-75
2023/07/11 11:41:43;;;;;;;3.78;2.10;;;;;;;31.19;60.59;100386.72;5129656;28;20034;-75
2023/07/11 11:44:19;;;;;;;3.88;2.35;;;;;;;31.06;57.91;100391.94;5123360;28;20029;-74
2023/07/11 11:46:50;;;;;;;6.32;2.38;;;;;;;31.07;56.48;100390.09;5111155;28;20023;-74
2023/07/11 11:49:25;;;;;;;5.28;2.53;;;;;;;30.93;58.55;100390.94;5122930;28;21516;-73
2023/07/11 11:51:56;;;;;;;7.00;2.40;;;;;;;30.95;58.56;100387.03;5106947;28;20038;-75
2023/07/11 11:54:34;;;;;;;3.38;2.20;;;;;;;30.75;58.34;100373.50;5124547;28;20043;-75